Time;durP1;ratioP1;P1;durP2;ratioP2;P2;SDS_P1;SDS_P2;PMS_P1;PMS_P2;Temp;Humidity;BMP_temperature;BMP_pressure;BME280_temperature;BME280_humidity;BME280_pressure;Samples;Min_cycle;Max_cycle;Signal;HPM_P1;HPM_P2
2021/05/09 00:01:58;;;;;;;4.45;1.65;;;;;;;4.99;74.51;100852.27;1719586;83;21006;-39
2021/05/09 00:04:26;;;;;;;3.72;1.40;;;;;;;5.07;74.95;100852.36;1719691;82;21110;-40
2021/05/09 00:06:56;;;;;;;5.55;1.57;;;;;;;5.09;74.81;100850.66;1719840;83;21149;-41
2021/05/09 00:09:24;;;;;;;2.47;1.42;;;;;;;5.13;74.11;100856.27;1719774;83;20985;-41
2021/05/09 00:11:53;;;;;;;7.83;2.08;;;;;;;5.14;74.24;100860.55;1719752;83;21484;-41
2021/05/09 00:14:22;;;;;;;3.35;1.50;;;;;;;5.14;73.94;100866.12;1719724;82;21580;-41
2021/05/09 00:16:51;;;;;;;2.12;1.60;;;;;;;5.12;73.45;100866.53;1717798;83;21161;-40
2021/05/09 00:19:19;;;;;;;2.50;1.40;;;;;;;5.13;73.51;100869.09;1706245;83;21376;-40
2021/05/09 00:21:47;;;;;;;9.05;1.82;;;;;;;5.18;73.42;100867.47;1706195;83;20971;-40
2021/05/09 00:24:14;;;;;;;1.72;1.62;;;;;;;5.18;73.42;100867.47;1706242;82;21659;-40
2021/05/09 00:26:42;;;;;;;2.50;1.82;;;;;;;5.24;72.29;100871.78;1706172;84;21003;-40
2021/05/09 00:29:10;;;;;;;2.40;1.70;;;;;;;5.21;72.15;100870.47;1706236;84;21022;-40
2021/05/09 00:31:37;;;;;;;4.85;1.70;;;;;;;5.21;72.15;100870.47;1706230;84;21378;-40
2021/05/09 00:34:05;;;;;;;1.87;1.32;;;;;;;5.08;72.99;100869.47;1706176;84;21301;-40
2021/05/09 00:36:33;;;;;;;1.42;1.30;;;;;;;5.08;72.99;100869.47;1706246;83;21015;-41
2021/05/09 00:39:00;;;;;;;1.72;1.45;;;;;;;5.08;73.07;100868.19;1706182;84;20956;-41
2021/05/09 00:41:28;;;;;;;1.95;1.85;;;;;;;5.09;72.48;100870.35;1706228;84;21015;-41
2021/05/09 00:43:56;;;;;;;1.45;1.32;;;;;;;5.08;72.66;100870.76;1706252;84;21375;-41
2021/05/09 00:46:24;;;;;;;3.62;1.82;;;;;;;5.11;72.64;100869.50;1684874;84;20976;-41
2021/05/09 00:48:53;;;;;;;1.60;1.50;;;;;;;5.12;72.75;100872.95;1706198;83;20952;-41
2021/05/09 00:51:21;;;;;;;2.05;1.85;;;;;;;5.09;72.70;100875.05;1706194;84;21023;-41
2021/05/09 00:53:49;;;;;;;3.45;1.55;;;;;;;5.06;72.94;100881.43;1706208;84;20991;-41
2021/05/09 00:56:17;;;;;;;2.45;1.57;;;;;;;5.06;73.08;100888.28;1663670;84;21395;-41
2021/05/09 00:58:47;;;;;;;4.30;1.92;;;;;;;5.02;73.18;100886.09;1686543;84;21110;-41
2021/05/09 01:01:15;;;;;;;3.60;1.80;;;;;;;4.99;73.00;100899.73;1706295;83;21437;-41
2021/05/09 01:03:43;;;;;;;3.10;1.85;;;;;;;4.99;72.51;100897.17;1706217;84;21027;-41
2021/05/09 01:06:11;;;;;;;4.15;2.02;;;;;;;4.99;72.51;100897.17;1706195;82;21066;-41
2021/05/09 01:08:39;;;;;;;2.55;1.80;;;;;;;5.02;72.60;100895.92;1706222;84;21511;-41
2021/05/09 01:11:07;;;;;;;4.28;1.80;;;;;;;5.00;72.75;100898.89;1706245;84;21003;-41
2021/05/09 01:13:37;;;;;;;2.17;1.70;;;;;;;4.97;72.78;100898.02;1706298;83;20943;-41
2021/05/09 01:16:06;;;;;;;6.75;2.08;;;;;;;4.95;72.52;100897.98;1706196;84;21068;-41
2021/05/09 01:18:33;;;;;;;1.95;1.80;;;;;;;4.93;72.52;100902.23;1715768;83;20958;-41
2021/05/09 01:21:02;;;;;;;2.98;1.80;;;;;;;4.88;72.86;100902.61;1719754;83;21368;-41
2021/05/09 01:23:30;;;;;;;4.55;1.90;;;;;;;4.82;72.86;100904.67;1719768;83;22197;-41
2021/05/09 01:25:57;;;;;;;2.27;1.67;;;;;;;4.79;73.13;100909.77;1719787;83;21038;-41
2021/05/09 01:28:25;;;;;;;4.72;1.52;;;;;;;4.73;73.08;100915.67;1692951;83;21018;-41
2021/05/09 01:30:53;;;;;;;1.60;1.50;;;;;;;4.70;72.78;100924.61;1719790;83;21030;-41
2021/05/09 01:33:21;;;;;;;3.00;1.40;;;;;;;4.70;72.77;100919.48;1719671;83;21392;-41
2021/05/09 01:35:49;;;;;;;3.67;1.52;;;;;;;4.70;72.76;100919.92;1719757;83;21579;-41
2021/05/09 01:38:17;;;;;;;3.83;1.95;;;;;;;4.65;72.59;100927.95;1719612;83;21022;-41
2021/05/09 01:40:45;;;;;;;1.60;1.50;;;;;;;4.64;72.58;100930.95;1719678;83;21342;-41
2021/05/09 01:43:13;;;;;;;4.15;1.65;;;;;;;4.63;73.01;100927.06;1719700;83;20939;-39
2021/05/09 01:45:40;;;;;;;1.60;1.50;;;;;;;4.64;72.93;100930.07;1719729;83;21367;-39
2021/05/09 01:48:09;;;;;;;1.35;1.15;;;;;;;4.64;72.90;100940.33;1719644;83;21046;-39
2021/05/09 01:50:38;;;;;;;2.35;1.70;;;;;;;4.58;72.72;100936.84;1719664;83;21098;-39
2021/05/09 01:53:06;;;;;;;2.33;1.32;;;;;;;4.59;72.62;100941.13;1719667;83;21042;-39
2021/05/09 01:55:35;;;;;;;3.33;1.40;;;;;;;4.61;72.48;100947.58;1719713;83;20916;-39
2021/05/09 01:58:04;;;;;;;2.33;1.37;;;;;;;4.63;72.41;100950.14;1717599;83;21386;-39
2021/05/09 02:00:36;;;;;;;2.08;1.60;;;;;;;4.58;72.52;100954.80;1717050;83;21037;-39
2021/05/09 02:03:06;;;;;;;1.85;1.75;;;;;;;4.58;72.24;100959.92;1692975;83;21061;-39
2021/05/09 02:05:34;;;;;;;2.42;1.67;;;;;;;4.63;72.28;100964.25;1719638;82;20971;-40
2021/05/09 02:08:03;;;;;;;1.55;1.42;;;;;;;4.62;72.14;100974.06;1719741;83;20908;-40
2021/05/09 02:10:32;;;;;;;3.37;1.67;;;;;;;4.57;72.25;100977.44;1693098;83;21443;-40
2021/05/09 02:13:00;;;;;;;5.97;1.72;;;;;;;4.55;72.58;100979.11;1719707;83;20927;-40
2021/05/09 02:15:35;;;;;;;3.52;1.80;;;;;;;4.57;72.03;100986.41;1718222;83;20970;-40
2021/05/09 02:18:04;;;;;;;2.98;1.80;;;;;;;4.56;72.55;100982.13;1719539;83;21038;-39
2021/05/09 02:20:33;;;;;;;1.40;1.30;;;;;;;4.53;72.48;100981.20;1719577;82;21014;-40
2021/05/09 02:23:01;;;;;;;3.67;1.70;;;;;;;4.52;72.84;100993.17;1719687;83;21388;-40
2021/05/09 02:25:30;;;;;;;2.35;1.32;;;;;;;4.53;72.67;100991.05;1719536;83;21026;-40
2021/05/09 02:28:00;;;;;;;4.55;1.60;;;;;;;4.52;72.78;100998.30;1719739;83;21234;-41
2021/05/09 02:30:28;;;;;;;2.52;1.82;;;;;;;4.49;73.09;101003.39;1719646;83;21018;-41
2021/05/09 02:32:56;;;;;;;3.10;1.62;;;;;;;4.47;73.38;100997.38;1719673;83;21630;-41
2021/05/09 02:35:25;;;;;;;1.82;1.60;;;;;;;4.50;72.65;101011.52;1719668;83;21460;-40
2021/05/09 02:37:53;;;;;;;5.25;2.25;;;;;;;4.54;72.39;101006.87;1719598;83;21010;-41
2021/05/09 02:40:20;;;;;;;1.50;1.40;;;;;;;4.54;72.13;101008.16;1719645;83;20982;-41
2021/05/09 02:42:50;;;;;;;4.33;1.98;;;;;;;4.54;72.62;101013.69;1719673;83;21038;-41
2021/05/09 02:45:18;;;;;;;1.82;1.72;;;;;;;4.54;72.54;101019.70;1719692;83;21010;-41
2021/05/09 02:47:46;;;;;;;2.00;1.80;;;;;;;4.51;73.02;101022.22;1719664;83;21395;-41
2021/05/09 02:50:15;;;;;;;3.08;2.08;;;;;;;4.46;73.01;101031.55;1719526;83;20991;-41
2021/05/09 02:52:44;;;;;;;2.00;1.80;;;;;;;4.49;73.28;101036.72;1719717;83;21600;-41
2021/05/09 02:57:45;;;;;;;2.85;2.00;;;;;;;4.55;72.52;101038.09;1847655;76;22560;-40
2021/05/09 03:00:16;;;;;;;2.98;1.70;;;;;;;4.50;72.28;101034.60;1817773;77;20935;-40
2021/05/09 03:02:45;;;;;;;1.65;1.55;;;;;;;4.55;72.25;101041.09;1813043;79;21276;-40
2021/05/09 03:05:15;;;;;;;2.22;1.87;;;;;;;4.57;72.51;101045.39;1803444;79;21100;-40
2021/05/09 03:07:44;;;;;;;3.33;1.75;;;;;;;4.59;71.80;101055.25;1785526;80;20982;-40
2021/05/09 03:10:12;;;;;;;2.22;1.95;;;;;;;4.61;72.04;101051.44;1785541;79;20929;-39
2021/05/09 03:12:40;;;;;;;1.92;1.67;;;;;;;4.62;71.40;101052.28;1785546;80;21072;-40
2021/05/09 03:15:11;;;;;;;6.40;2.12;;;;;;;4.68;71.56;101060.09;1785520;79;21141;-41
2021/05/09 03:17:38;;;;;;;1.82;1.72;;;;;;;4.69;71.29;101062.67;1785588;80;21029;-41
2021/05/09 03:20:08;;;;;;;2.35;1.75;;;;;;;4.71;71.30;101057.14;1785550;80;20930;-41
2021/05/09 03:22:35;;;;;;;1.95;1.75;;;;;;;4.75;70.92;101064.48;1785625;79;21009;-41
2021/05/09 03:25:04;;;;;;;2.52;2.00;;;;;;;4.80;70.66;101063.23;1785658;80;21546;-41
2021/05/09 03:27:31;;;;;;;2.75;1.75;;;;;;;4.86;69.87;101062.08;1785591;80;22112;-41
2021/05/09 03:30:00;;;;;;;3.37;1.60;;;;;;;4.94;69.30;101066.05;1785459;79;20946;-42
2021/05/09 03:32:27;;;;;;;1.62;1.50;;;;;;;4.99;68.52;101064.41;1785598;79;20951;-41
2021/05/09 03:34:57;;;;;;;2.75;1.92;;;;;;;5.06;68.31;101062.80;1785523;79;20994;-41
2021/05/09 03:37:24;;;;;;;8.18;1.90;;;;;;;5.13;67.71;101062.88;1785547;80;20915;-41
2021/05/09 03:39:54;;;;;;;1.77;1.67;;;;;;;5.22;68.19;101070.28;1785549;80;20938;-41
2021/05/09 03:42:21;;;;;;;1.70;1.60;;;;;;;5.34;66.82;101070.86;1785456;80;21049;-41
2021/05/09 03:44:50;;;;;;;4.97;1.70;;;;;;;5.49;66.89;101068.47;1785592;80;20910;-41
2021/05/09 03:47:17;;;;;;;1.60;1.50;;;;;;;5.67;66.18;101080.67;1785626;80;21033;-41
2021/05/09 03:49:45;;;;;;;1.65;1.55;;;;;;;5.84;65.81;101078.73;1785551;80;21014;-41
2021/05/09 03:52:13;;;;;;;3.02;1.67;;;;;;;5.97;65.37;101079.72;1785498;79;21366;-41
2021/05/09 03:54:40;;;;;;;1.70;1.55;;;;;;;6.12;65.47;101081.62;1785492;80;20907;-41
2021/05/09 03:57:08;;;;;;;1.87;1.55;;;;;;;6.21;65.16;101090.73;1785448;79;20990;-41
2021/05/09 03:59:38;;;;;;;5.22;1.80;;;;;;;6.32;64.62;101089.10;1785381;80;21057;-41
2021/05/09 04:02:06;;;;;;;1.10;1.10;;;;;;;6.44;64.76;101091.34;1785595;79;20914;-41
2021/05/09 04:04:34;;;;;;;2.05;1.67;;;;;;;6.57;64.66;101103.91;1785461;79;21257;-41
2021/05/09 04:07:02;;;;;;;2.67;1.77;;;;;;;6.67;63.88;101098.39;1785415;80;20952;-41
2021/05/09 04:09:31;;;;;;;1.20;1.12;;;;;;;6.73;63.99;101101.03;1784938;80;21053;-40
2021/05/09 04:11:58;;;;;;;3.02;1.72;;;;;;;6.85;62.95;101110.12;1784853;80;21038;-40
2021/05/09 04:14:26;;;;;;;1.60;1.50;;;;;;;6.90;63.02;101112.30;1784897;80;20883;-40
2021/05/09 04:16:54;;;;;;;1.42;1.35;;;;;;;7.01;62.64;101110.23;1784931;80;21194;-40
2021/05/09 04:19:22;;;;;;;2.87;1.65;;;;;;;7.07;61.29;101120.58;1784926;80;21029;-41
2021/05/09 04:21:50;;;;;;;2.87;1.80;;;;;;;7.11;61.29;101118.45;1784932;80;21026;-40
2021/05/09 04:24:18;;;;;;;1.60;1.50;;;;;;;7.21;61.69;101124.52;1784867;80;21002;-41
2021/05/09 04:26:45;;;;;;;2.55;1.60;;;;;;;7.33;60.40;101122.03;1784998;80;20919;-40
2021/05/09 04:29:13;;;;;;;1.87;1.30;;;;;;;7.42;59.41;101128.92;1784975;80;21364;-40
2021/05/09 04:31:41;;;;;;;1.45;1.35;;;;;;;7.53;59.17;101117.83;1784873;80;21097;-41
2021/05/09 04:34:09;;;;;;;3.92;1.25;;;;;;;7.57;58.19;101140.17;1784877;80;20974;-41
2021/05/09 04:36:37;;;;;;;1.47;1.37;;;;;;;7.57;58.41;101138.45;1784824;80;20919;-41
2021/05/09 04:39:06;;;;;;;2.12;1.45;;;;;;;7.66;58.30;101142.78;1784955;80;20923;-39
2021/05/09 04:41:33;;;;;;;3.40;1.85;;;;;;;7.78;58.54;101145.84;1784938;79;21853;-39
2021/05/09 04:44:01;;;;;;;1.65;1.55;;;;;;;7.90;55.48;101148.48;1784826;79;21690;-41
2021/05/09 04:46:29;;;;;;;2.15;1.65;;;;;;;7.82;56.42;101158.33;1784926;80;21022;-41
2021/05/09 04:48:57;;;;;;;1.92;1.75;;;;;;;7.83;56.25;101158.77;1784917;80;20979;-41
2021/05/09 04:51:25;;;;;;;3.37;1.62;;;;;;;7.86;56.51;101162.64;1785043;79;20959;-40
2021/05/09 04:53:54;;;;;;;2.10;1.50;;;;;;;7.98;56.55;101161.83;1784040;80;21464;-41
2021/05/09 04:56:22;;;;;;;1.45;1.35;;;;;;;8.13;55.12;101163.59;1787003;79;21045;-41
2021/05/09 04:58:51;;;;;;;1.75;1.35;;;;;;;8.19;55.14;101158.45;1798515;78;21001;-40
2021/05/09 05:01:19;;;;;;;1.42;1.32;;;;;;;8.30;54.07;101169.67;1799429;79;21156;-40
2021/05/09 05:03:47;;;;;;;1.50;1.40;;;;;;;8.36;52.35;101167.54;1799480;78;21016;-42
2021/05/09 05:06:16;;;;;;;1.35;1.25;;;;;;;8.39;53.16;101174.41;1799449;78;22245;-41
2021/05/09 05:08:44;;;;;;;1.95;1.42;;;;;;;8.42;53.08;101176.98;1799362;79;21045;-41
2021/05/09 05:11:11;;;;;;;1.90;1.55;;;;;;;8.44;53.00;101180.43;1799432;79;21523;-41
2021/05/09 05:13:40;;;;;;;3.50;1.52;;;;;;;8.54;53.64;101183.51;1799444;79;21005;-39
2021/05/09 05:16:08;;;;;;;7.10;1.25;;;;;;;8.72;52.66;101180.08;1799435;79;21076;-39
2021/05/09 05:18:36;;;;;;;2.62;1.57;;;;;;;8.69;52.56;101185.66;1799387;79;21191;-39
2021/05/09 05:21:05;;;;;;;1.40;1.30;;;;;;;8.78;52.98;101185.69;1799377;79;21049;-41
2021/05/09 05:23:35;;;;;;;1.95;1.37;;;;;;;9.01;52.17;101190.84;1799375;79;20978;-41
2021/05/09 05:26:04;;;;;;;1.20;1.07;;;;;;;9.03;51.48;101196.03;1799494;79;20924;-40
2021/05/09 05:28:32;;;;;;;1.00;1.00;;;;;;;9.13;51.27;101190.43;1799403;79;21586;-40
2021/05/09 05:31:01;;;;;;;1.82;1.35;;;;;;;9.20;49.62;101194.27;1799418;79;21197;-40
2021/05/09 05:33:35;;;;;;;1.40;0.90;;;;;;;9.21;50.16;101200.31;1799180;79;20981;-40
2021/05/09 05:36:05;;;;;;;3.08;1.10;;;;;;;9.26;49.92;101197.73;1799344;79;20942;-40
2021/05/09 05:38:33;;;;;;;4.03;1.27;;;;;;;9.35;49.96;101199.00;1799342;79;21045;-40
2021/05/09 05:41:00;;;;;;;1.47;1.32;;;;;;;9.62;48.55;101199.81;1799483;79;21002;-40
2021/05/09 05:43:30;;;;;;;2.00;1.12;;;;;;;9.66;48.13;101198.94;1799348;79;21382;-40
2021/05/09 05:45:59;;;;;;;1.37;1.10;;;;;;;9.72;49.66;101212.28;1799412;79;21609;-40
2021/05/09 05:48:26;;;;;;;1.20;1.20;;;;;;;9.90;47.22;101212.66;1799475;79;21487;-41
2021/05/09 05:50:54;;;;;;;1.27;1.17;;;;;;;9.80;47.36;101207.09;1799372;79;20982;-39
2021/05/09 05:53:26;;;;;;;1.57;1.27;;;;;;;9.63;49.52;101208.87;1799540;79;21609;-39
2021/05/09 05:55:55;;;;;;;1.32;1.22;;;;;;;9.72;47.84;101214.42;1799447;79;22275;-39
2021/05/09 05:58:22;;;;;;;2.05;1.00;;;;;;;9.82;48.36;101217.00;1799261;79;21034;-40
2021/05/09 06:00:50;;;;;;;2.65;1.10;;;;;;;9.73;46.89;101217.88;1799414;79;20973;-41
2021/05/09 06:03:18;;;;;;;0.98;0.98;;;;;;;9.76;47.60;101223.92;1799376;79;21017;-40
2021/05/09 06:05:46;;;;;;;0.98;0.98;;;;;;;9.84;47.66;101219.14;1799395;78;21009;-40
2021/05/09 06:08:18;;;;;;;1.98;1.20;;;;;;;9.89;47.46;101226.03;1799445;79;21348;-40
2021/05/09 06:10:46;;;;;;;1.45;1.30;;;;;;;9.99;46.90;101222.11;1799438;79;21626;-41
2021/05/09 06:13:14;;;;;;;3.58;0.90;;;;;;;10.06;46.33;101219.50;1799418;79;21005;-40
2021/05/09 06:15:42;;;;;;;1.32;1.10;;;;;;;10.05;45.20;101238.89;1799461;79;20926;-40
2021/05/09 06:18:09;;;;;;;1.72;1.22;;;;;;;9.85;47.19;101226.91;1799442;79;20958;-40
2021/05/09 06:20:37;;;;;;;1.50;1.02;;;;;;;9.92;46.25;101235.06;1799453;79;21196;-40
2021/05/09 06:23:05;;;;;;;1.45;1.35;;;;;;;9.99;45.61;101226.86;1799341;79;21044;-41
2021/05/09 06:25:34;;;;;;;2.12;0.88;;;;;;;10.06;46.38;101233.73;1799465;79;20949;-41
2021/05/09 06:28:02;;;;;;;2.35;1.00;;;;;;;10.26;47.58;101230.20;1799323;79;20937;-41
2021/05/09 06:30:30;;;;;;;1.00;1.00;;;;;;;10.30;45.34;101225.43;1799353;79;21033;-40
2021/05/09 06:32:58;;;;;;;1.15;1.05;;;;;;;10.25;44.55;101232.78;1799370;79;21434;-41
2021/05/09 06:35:26;;;;;;;0.90;0.88;;;;;;;10.26;45.61;101230.20;1799261;79;20895;-41
2021/05/09 06:37:54;;;;;;;3.62;1.20;;;;;;;10.38;47.12;101219.34;1799370;79;21016;-41
2021/05/09 06:40:23;;;;;;;1.20;1.20;;;;;;;10.67;46.44;101226.11;1799330;78;20922;-42
2021/05/09 06:42:57;;;;;;;1.07;0.80;;;;;;;10.72;46.08;101226.51;1799469;79;21582;-42
2021/05/09 06:45:29;;;;;;;1.35;1.10;;;;;;;10.65;42.82;101237.78;1799386;79;21372;-42
2021/05/09 06:47:58;;;;;;;5.37;1.60;;;;;;;10.44;42.25;101233.57;1799365;79;21017;-42
2021/05/09 06:50:27;;;;;;;1.12;1.00;;;;;;;10.44;43.42;101242.63;1799373;79;21132;-39
2021/05/09 06:52:55;;;;;;;1.15;1.15;;;;;;;10.47;44.07;101249.95;1799371;79;21048;-41
2021/05/09 06:55:22;;;;;;;9.93;1.12;;;;;;;10.47;43.87;101246.49;1799343;79;20914;-41
2021/05/09 06:57:50;;;;;;;1.20;1.10;;;;;;;10.60;42.58;101245.98;1798092;79;21244;-41
2021/05/09 07:00:20;;;;;;;1.37;1.27;;;;;;;10.54;43.98;101248.20;1796690;79;21041;-41
2021/05/09 07:02:49;;;;;;;3.15;1.10;;;;;;;10.58;45.34;101233.07;1796773;79;20978;-42
2021/05/09 07:05:17;;;;;;;2.30;1.00;;;;;;;10.72;44.61;101239.88;1796770;78;21010;-41
2021/05/09 07:07:57;;;;;;;1.42;1.32;;;;;;;10.70;45.40;101242.49;1796896;79;20970;-41
2021/05/09 07:10:26;;;;;;;2.67;1.22;;;;;;;10.60;46.96;101256.34;1796821;79;21191;-42
2021/05/09 07:12:55;;;;;;;1.22;1.22;;;;;;;10.51;46.72;101240.45;1796825;79;20998;-41
2021/05/09 07:15:28;;;;;;;5.00;1.52;;;;;;;10.43;45.44;101249.97;1796800;79;20997;-41
2021/05/09 07:18:03;;;;;;;1.32;1.22;;;;;;;10.28;46.59;101245.70;1796099;79;21025;-41
2021/05/09 07:20:31;;;;;;;1.35;1.25;;;;;;;10.19;46.07;101253.06;1796739;79;21021;-39
2021/05/09 07:23:00;;;;;;;1.30;1.20;;;;;;;10.09;47.14;101234.13;1796886;79;22256;-42
2021/05/09 07:25:27;;;;;;;2.90;1.10;;;;;;;10.21;47.92;101248.73;1796720;79;21586;-41
2021/05/09 07:28:08;;;;;;;2.47;1.40;;;;;;;10.33;45.93;101234.89;1796880;79;20938;-41
2021/05/09 07:30:37;;;;;;;2.47;0.98;;;;;;;10.23;46.38;101248.75;1796829;79;21501;-42
2021/05/09 07:35:23;;;;;;;3.62;1.30;;;;;;;10.36;47.72;101240.08;1776990;79;22553;-41
2021/05/09 07:37:52;;;;;;;4.30;1.40;;;;;;;10.38;46.27;101252.98;1749452;82;21051;-41
2021/05/09 07:40:21;;;;;;;3.05;1.15;;;;;;;10.41;46.09;101255.59;1749412;82;21353;-41
2021/05/09 07:42:49;;;;;;;0.95;0.95;;;;;;;10.34;45.79;101245.24;1749531;82;21564;-41
2021/05/09 07:45:19;;;;;;;1.15;1.15;;;;;;;10.40;46.59;101249.95;1749386;82;20998;-41
2021/05/09 07:47:46;;;;;;;2.25;1.12;;;;;;;10.57;45.18;101270.19;1749479;82;21598;-41
2021/05/09 07:50:15;;;;;;;2.33;1.40;;;;;;;10.81;45.11;101252.78;1749405;82;20896;-41
2021/05/09 07:52:47;;;;;;;5.47;1.15;;;;;;;11.20;44.43;101233.91;1749417;81;21333;-41
2021/05/09 07:55:15;;;;;;;5.22;1.90;;;;;;;11.40;44.57;101224.25;1749354;82;20951;-41
2021/05/09 07:57:43;;;;;;;11.30;1.30;;;;;;;11.44;45.31;101240.19;1749465;82;20939;-41
2021/05/09 08:00:13;;;;;;;5.20;1.35;;;;;;;11.23;43.12;101241.22;1749328;82;21058;-41
2021/05/09 08:02:44;;;;;;;1.30;1.20;;;;;;;10.90;45.44;101244.94;1749288;82;21070;-41
2021/05/09 08:05:13;;;;;;;2.35;1.30;;;;;;;10.93;45.15;101248.80;1738116;82;22259;-41
2021/05/09 08:07:55;;;;;;;8.68;1.87;;;;;;;11.17;45.56;101249.93;1719501;83;20971;-41
2021/05/09 08:10:24;;;;;;;2.98;1.00;;;;;;;11.19;44.08;101254.21;1718919;82;20971;-40
2021/05/09 08:12:53;;;;;;;1.40;1.30;;;;;;;11.21;43.12;101249.03;1719474;83;21034;-40
2021/05/09 08:15:24;;;;;;;1.02;0.93;;;;;;;11.34;43.25;101253.67;1719484;83;20998;-40
2021/05/09 08:17:53;;;;;;;1.15;1.05;;;;;;;11.74;41.18;101254.56;1719626;83;21368;-40
2021/05/09 08:20:22;;;;;;;3.10;1.27;;;;;;;11.93;40.97;101263.03;1719523;83;21560;-41
2021/05/09 08:22:50;;;;;;;2.65;1.27;;;;;;;12.06;40.36;101254.69;1719653;83;20939;-41
2021/05/09 08:25:19;;;;;;;1.85;1.02;;;;;;;12.16;39.50;101263.23;1719457;83;21050;-41
2021/05/09 08:27:49;;;;;;;1.57;0.82;;;;;;;11.90;41.53;101254.41;1719546;83;21027;-41
2021/05/09 08:30:21;;;;;;;1.30;1.15;;;;;;;11.79;42.03;101263.17;1719571;82;21348;-41
2021/05/09 08:32:49;;;;;;;1.87;1.10;;;;;;;11.74;39.63;101258.91;1659072;86;21056;-41
2021/05/09 08:35:18;;;;;;;6.90;0.90;;;;;;;11.83;41.85;101265.73;1674391;84;21038;-41
2021/05/09 08:37:46;;;;;;;1.50;0.88;;;;;;;12.06;39.72;101269.39;1682722;85;21074;-41
2021/05/09 08:40:16;;;;;;;1.32;0.95;;;;;;;12.29;39.20;101261.34;1673411;85;21047;-41
2021/05/09 08:42:49;;;;;;;0.65;0.65;;;;;;;12.16;39.01;101273.61;1682778;85;21618;-41
2021/05/09 08:45:18;;;;;;;1.10;0.95;;;;;;;11.85;40.54;101270.47;1673171;84;21090;-39
2021/05/09 08:47:46;;;;;;;5.33;1.47;;;;;;;11.81;40.37;101277.41;1682326;85;21602;-40
2021/05/09 08:50:18;;;;;;;3.70;0.93;;;;;;;11.93;41.71;101257.84;1672850;85;21109;-39
2021/05/09 08:52:48;;;;;;;23.80;1.65;;;;;;;12.21;38.02;101263.16;1656130;86;21623;-41
2021/05/09 08:55:23;;;;;;;1.67;0.65;;;;;;;12.20;38.91;101267.92;1682205;84;21606;-41
2021/05/09 08:57:56;;;;;;;9.30;1.00;;;;;;;12.09;38.25;101299.19;1661323;85;21714;-41
2021/05/09 09:00:26;;;;;;;3.47;0.78;;;;;;;12.07;39.98;101278.47;1661398;86;20926;-42
2021/05/09 09:02:56;;;;;;;3.75;1.17;;;;;;;12.36;39.26;101287.63;1661271;85;21141;-39
2021/05/09 09:05:41;;;;;;;1.87;0.80;;;;;;;12.35;41.25;101271.64;1657676;85;21063;-40
2021/05/09 09:08:10;;;;;;;2.15;0.70;;;;;;;12.05;39.77;101287.13;1682283;84;22286;-41
2021/05/09 09:10:46;;;;;;;2.85;1.00;;;;;;;11.64;39.86;101278.88;1661355;85;21575;-41
2021/05/09 09:13:29;;;;;;;1.12;0.90;;;;;;;11.36;40.48;101299.88;1661278;86;20954;-41
2021/05/09 09:16:04;;;;;;;4.55;0.90;;;;;;;11.38;41.74;101287.76;1661137;85;20997;-41
2021/05/09 09:18:38;;;;;;;5.15;0.98;;;;;;;11.72;40.22;101292.62;1657869;86;21107;-41
2021/05/09 09:21:27;;;;;;;5.87;0.90;;;;;;;12.07;39.48;101294.03;1682291;85;22285;-42
2021/05/09 09:24:06;;;;;;;0.75;0.70;;;;;;;12.47;38.67;101289.22;1672953;85;21667;-42
2021/05/09 09:26:48;;;;;;;3.00;0.90;;;;;;;12.80;37.26;101292.25;1682165;85;21077;-41
2021/05/09 09:29:34;;;;;;;0.80;0.60;;;;;;;12.57;38.51;101286.94;1672948;85;21655;-41
2021/05/09 09:32:06;;;;;;;1.00;0.78;;;;;;;12.60;39.20;101279.53;1682364;84;20915;-42
2021/05/09 09:34:50;;;;;;;3.92;1.05;;;;;;;12.84;38.46;101287.43;1672923;84;22295;-42
2021/05/09 09:37:19;;;;;;;1.77;0.82;;;;;;;13.12;37.63;101287.43;1682198;85;20958;-41
2021/05/09 09:40:00;;;;;;;5.28;0.88;;;;;;;13.01;37.99;101274.60;1672970;85;21101;-41
2021/05/09 09:42:42;;;;;;;0.85;0.70;;;;;;;12.79;37.93;101296.58;1682209;84;21662;-41
2021/05/09 09:45:19;;;;;;;1.10;1.00;;;;;;;12.75;38.51;101292.31;1661293;85;20998;-40
2021/05/09 09:47:52;;;;;;;18.42;1.98;;;;;;;12.70;38.53;101292.83;1661279;86;21156;-42
2021/05/09 09:50:46;;;;;;;0.80;0.60;;;;;;;12.96;38.79;101298.51;1661215;86;21026;-42
2021/05/09 09:53:31;;;;;;;47.30;2.77;;;;;;;13.00;37.03;101298.45;1661352;85;21500;-42
2021/05/09 09:56:20;;;;;;;2.27;0.95;;;;;;;13.17;38.25;101300.78;1657790;86;21075;-41
2021/05/09 09:58:58;;;;;;;2.85;0.68;;;;;;;13.36;37.90;101292.69;1682276;85;21599;-41
2021/05/09 10:01:34;;;;;;;2.47;0.65;;;;;;;13.25;35.48;101331.86;1672796;85;21421;-40
2021/05/09 10:04:08;;;;;;;3.47;0.75;;;;;;;13.20;34.30;101334.52;1682183;85;21599;-41
2021/05/09 10:06:41;;;;;;;1.00;0.90;;;;;;;13.10;34.58;101312.16;1672884;84;21388;-41
2021/05/09 10:09:08;;;;;;;0.70;0.70;;;;;;;13.29;36.62;101301.48;1656957;86;21071;-41
2021/05/09 10:11:37;;;;;;;0.88;0.80;;;;;;;13.52;37.04;101305.48;1682269;84;21596;-41
2021/05/09 10:14:07;;;;;;;1.82;0.80;;;;;;;13.61;37.90;101297.05;1672783;85;21090;-41
2021/05/09 10:16:37;;;;;;;2.33;0.88;;;;;;;13.84;36.22;101310.55;1682155;85;21543;-41
2021/05/09 10:19:10;;;;;;;12.28;1.30;;;;;;;13.81;36.77;101311.91;1672834;85;21094;-41
2021/05/09 10:21:37;;;;;;;2.37;0.60;;;;;;;13.75;38.43;101315.47;1682203;85;21506;-41
2021/05/09 10:24:22;;;;;;;1.02;0.93;;;;;;;13.85;35.38;101316.16;1672945;85;21490;-42
2021/05/09 10:27:06;;;;;;;1.17;0.80;;;;;;;13.73;36.53;101312.88;1680885;85;21386;-41
2021/05/09 10:29:41;;;;;;;0.78;0.65;;;;;;;13.98;35.89;101324.59;1658007;86;21030;-41
2021/05/09 10:32:26;;;;;;;4.45;0.70;;;;;;;13.96;35.54;101315.50;1661592;85;21022;-42
2021/05/09 10:35:08;;;;;;;3.15;0.68;;;;;;;13.82;34.59;101321.42;1657919;85;21018;-40
2021/05/09 10:37:53;;;;;;;3.85;0.85;;;;;;;13.94;36.20;101318.15;1653614;86;21638;-40
2021/05/09 10:40:42;;;;;;;1.47;0.90;;;;;;;13.89;36.78;101323.89;1711098;83;21391;-41
2021/05/09 10:43:17;;;;;;;1.00;0.90;;;;;;;13.62;38.10;101332.58;1711045;83;21560;-40
2021/05/09 10:45:50;;;;;;;3.10;0.85;;;;;;;13.96;36.28;101312.90;1711068;83;20947;-41
2021/05/09 10:48:30;;;;;;;1.00;0.85;;;;;;;14.26;35.13;101335.31;1684720;83;21066;-40
2021/05/09 10:51:11;;;;;;;9.65;1.37;;;;;;;14.17;35.10;101329.00;1710090;83;21022;-40
2021/05/09 10:53:40;;;;;;;2.72;0.90;;;;;;;14.08;36.68;101329.59;1708903;83;21200;-40
2021/05/09 10:56:19;;;;;;;1.85;0.98;;;;;;;13.70;35.90;101342.86;1710854;83;20987;-41
2021/05/09 10:58:53;;;;;;;1.20;0.98;;;;;;;13.42;37.12;101330.28;1710934;83;21031;-41
2021/05/09 11:01:26;;;;;;;2.45;0.95;;;;;;;13.81;35.51;101326.21;1710908;83;20988;-41
2021/05/09 11:04:02;;;;;;;2.22;1.40;;;;;;;14.13;37.19;101323.44;1711070;83;21485;-40
2021/05/09 11:06:41;;;;;;;0.90;0.90;;;;;;;14.27;35.55;101348.74;1710901;82;21333;-42
2021/05/09 11:09:23;;;;;;;1.20;0.93;;;;;;;13.93;35.85;101329.88;1710875;82;21038;-42
2021/05/09 11:11:54;;;;;;;0.80;0.80;;;;;;;13.65;36.67;101340.78;1710890;83;21095;-42
2021/05/09 11:14:22;;;;;;;0.85;0.85;;;;;;;13.32;37.57;101333.47;1710853;83;21019;-42
2021/05/09 11:17:04;;;;;;;1.12;0.90;;;;;;;13.22;37.76;101344.45;1711095;83;21643;-42
2021/05/09 11:19:42;;;;;;;3.40;1.05;;;;;;;13.07;37.02;101342.11;1711093;83;22319;-40
2021/05/09 11:22:10;;;;;;;7.30;1.30;;;;;;;12.88;39.45;101348.86;1710961;82;20939;-42
2021/05/09 11:24:40;;;;;;;2.40;1.10;;;;;;;13.17;37.96;101354.07;1710968;83;21022;-41
2021/05/09 11:27:11;;;;;;;1.75;0.82;;;;;;;13.52;36.82;101336.23;1710932;83;21019;-42
2021/05/09 11:29:41;;;;;;;0.72;0.72;;;;;;;13.92;36.76;101335.54;1710959;83;21031;-42
2021/05/09 11:32:17;;;;;;;2.58;0.80;;;;;;;14.07;35.36;101351.31;1711059;82;22113;-41
2021/05/09 11:34:57;;;;;;;41.77;2.12;;;;;;;14.14;35.94;101348.59;1710158;83;21094;-43
2021/05/09 11:37:31;;;;;;;10.53;1.42;;;;;;;14.26;36.11;101341.82;1706126;84;21066;-42
2021/05/09 11:40:00;;;;;;;4.78;0.88;;;;;;;14.53;34.52;101347.39;1706194;84;21164;-43
2021/05/09 11:42:28;;;;;;;2.70;0.85;;;;;;;14.74;34.06;101347.83;1706188;84;21026;-42
2021/05/09 11:44:59;;;;;;;8.18;1.20;;;;;;;14.79;31.94;101347.31;1706140;84;21453;-41
2021/05/09 11:47:30;;;;;;;1.42;0.98;;;;;;;14.49;34.29;101343.11;1706072;84;21023;-41
2021/05/09 11:50:03;;;;;;;1.35;0.65;;;;;;;14.41;33.38;101342.42;1706207;84;21482;-41